You are listening to:
EHGG Approach - Groningen, Netherlands

EHGG 180025Z AUTO 03004KT 350V050 7000 NSC 18/16 Q1014

If stream doesn't start automatically press the play button
If stream stops then reload player then press play